Airport ID:KRTS
Update Time (UTC):21/02/2024 12:06
Wind Speed (Knots):1
Wind Direction (Magnetic):270
Temperature (°C):0
Dew Point (°C):0
Humidity (%):100
Altimeter (inHg):30
Density Altitude (Feet):
Visibility (Miles):1/4
Clouds (Hundreds of feet):OVC002
Present Weather:FZFG
METAR:METAR KRTS 211205Z AUTO 00000KT 1/4SM FZFG OVC002 M00/M00 A3000 RMK AO2

The data displayed is for advisory purposes only and is not to be used for flight planning or operations.